createdAt,value
2023-08-15T00:01:13.733Z,0
2023-08-15T00:02:28.026Z,0
2023-08-15T00:03:42.318Z,0
2023-08-15T00:04:56.611Z,0
2023-08-15T00:06:10.903Z,0
2023-08-15T00:07:25.196Z,0
2023-08-15T00:08:39.488Z,0
2023-08-15T00:09:53.781Z,0
2023-08-15T00:11:08.073Z,0
2023-08-15T00:12:21.382Z,0
2023-08-15T00:13:35.674Z,0
2023-08-15T00:14:49.967Z,0
2023-08-15T00:16:04.259Z,0
2023-08-15T00:17:18.552Z,0
2023-08-15T00:18:32.844Z,0
2023-08-15T00:19:47.137Z,0
2023-08-15T00:21:01.429Z,0
2023-08-15T00:22:15.722Z,0
2023-08-15T00:23:30.014Z,0
2023-08-15T00:24:44.306Z,0
2023-08-15T00:25:58.599Z,0
2023-08-15T00:27:12.892Z,0
2023-08-15T00:28:26.200Z,0
2023-08-15T00:29:40.493Z,0
2023-08-15T00:30:54.785Z,0
2023-08-15T00:32:09.073Z,0
2023-08-15T00:33:23.370Z,0
2023-08-15T00:34:37.662Z,0
2023-08-15T00:35:51.955Z,0
2023-08-15T00:37:06.247Z,0
2023-08-15T00:38:20.540Z,0
2023-08-15T00:39:34.833Z,0
2023-08-15T00:40:49.125Z,0
2023-08-15T00:42:03.418Z,0
2023-08-15T00:43:17.710Z,0
2023-08-15T00:44:31.019Z,0
2023-08-15T00:45:45.311Z,0
2023-08-15T00:46:59.603Z,0
2023-08-15T00:48:13.896Z,0
2023-08-15T00:49:28.189Z,0
2023-08-15T00:50:42.481Z,0
2023-08-15T00:51:56.774Z,0
2023-08-15T00:53:11.066Z,0
2023-08-15T00:54:25.358Z,0
2023-08-15T00:55:39.651Z,0
2023-08-15T00:56:53.943Z,0
2023-08-15T00:58:08.236Z,0
2023-08-15T00:59:22.529Z,0
2023-08-15T01:00:35.837Z,0
2023-08-15T01:01:50.130Z,0
2023-08-15T01:03:04.422Z,0
2023-08-15T01:04:18.715Z,0
2023-08-15T01:05:33.007Z,0
2023-08-15T01:06:47.300Z,0
2023-08-15T01:08:01.592Z,0
2023-08-15T01:09:15.885Z,0
2023-08-15T01:10:30.177Z,0
2023-08-15T01:11:44.470Z,0
2023-08-15T01:12:58.762Z,0
2023-08-15T01:14:13.055Z,0
2023-08-15T01:15:27.347Z,0
2023-08-15T01:16:40.656Z,0
2023-08-15T01:17:54.948Z,0
2023-08-15T01:19:09.241Z,0
2023-08-15T01:20:23.533Z,0
2023-08-15T01:21:37.826Z,0
2023-08-15T01:22:52.118Z,0
2023-08-15T01:24:06.411Z,0
2023-08-15T01:25:20.703Z,0
2023-08-15T01:26:34.996Z,0
2023-08-15T01:27:49.288Z,0
2023-08-15T01:29:03.580Z,0
2023-08-15T01:30:17.873Z,0
2023-08-15T01:31:32.166Z,0
2023-08-15T01:32:45.474Z,0
2023-08-15T01:33:59.767Z,0
2023-08-15T01:35:14.059Z,0
2023-08-15T01:36:28.352Z,0
2023-08-15T01:37:42.644Z,0
2023-08-15T01:38:56.936Z,0
2023-08-15T01:40:11.229Z,0
2023-08-15T01:41:25.521Z,0
2023-08-15T01:42:39.814Z,0
2023-08-15T01:43:54.107Z,0
2023-08-15T01:45:08.399Z,0
2023-08-15T01:46:22.691Z,0
2023-08-15T01:47:36.984Z,0
2023-08-15T01:48:50.292Z,0
2023-08-15T01:50:04.585Z,0
2023-08-15T01:51:18.877Z,0
2023-08-15T01:52:33.170Z,0
2023-08-15T01:53:47.463Z,0
2023-08-15T01:55:01.755Z,0
2023-08-15T01:56:16.047Z,0
2023-08-15T01:57:30.340Z,0
2023-08-15T01:58:44.616Z,0
2023-08-15T01:59:58.922Z,0
2023-08-15T02:01:13.217Z,0
2023-08-15T02:02:27.510Z,0
2023-08-15T02:03:41.802Z,0
2023-08-15T02:04:55.111Z,0
2023-08-15T02:06:09.404Z,0
2023-08-15T02:07:23.696Z,0
2023-08-15T02:08:37.988Z,0
2023-08-15T02:09:52.281Z,0
2023-08-15T02:11:06.573Z,0
2023-08-15T02:12:20.866Z,0
2023-08-15T02:13:35.158Z,0
2023-08-15T02:14:49.451Z,0
2023-08-15T02:16:03.744Z,0
2023-08-15T02:17:18.036Z,0
2023-08-15T02:18:32.328Z,0
2023-08-15T02:19:46.621Z,0
2023-08-15T02:20:59.929Z,0
2023-08-15T02:22:14.222Z,0
2023-08-15T02:23:28.515Z,0
2023-08-15T02:24:42.808Z,0
2023-08-15T02:25:57.101Z,0
2023-08-15T02:27:11.393Z,0
2023-08-15T02:28:25.686Z,0
2023-08-15T02:29:39.978Z,0
2023-08-15T02:30:54.270Z,0
2023-08-15T02:32:08.563Z,0
2023-08-15T02:33:22.855Z,0
2023-08-15T02:34:37.148Z,0
2023-08-15T02:35:51.441Z,0
2023-08-15T02:37:04.749Z,0
2023-08-15T02:38:19.042Z,0
2023-08-15T02:39:33.334Z,0
2023-08-15T02:40:47.626Z,0
2023-08-15T02:42:01.919Z,0
2023-08-15T02:43:16.211Z,0
2023-08-15T02:44:30.504Z,0
2023-08-15T02:45:44.796Z,0
2023-08-15T02:46:59.089Z,0
2023-08-15T02:48:13.381Z,0
2023-08-15T02:49:27.674Z,0
2023-08-15T02:50:41.966Z,0
2023-08-15T02:51:56.259Z,0
2023-08-15T02:53:09.567Z,0
2023-08-15T02:54:23.860Z,0
2023-08-15T02:55:38.152Z,0
2023-08-15T02:56:52.444Z,0
2023-08-15T02:58:06.737Z,0
2023-08-15T02:59:21.030Z,0
2023-08-15T03:00:35.323Z,0
2023-08-15T03:01:49.615Z,0
2023-08-15T03:03:03.908Z,0
2023-08-15T03:04:18.200Z,0
2023-08-15T03:05:32.492Z,0
2023-08-15T03:06:46.786Z,0
2023-08-15T03:08:01.079Z,0
2023-08-15T03:09:14.387Z,0
2023-08-15T03:10:28.680Z,0
2023-08-15T03:11:42.972Z,0
2023-08-15T03:12:57.264Z,0
2023-08-15T03:14:11.557Z,0
2023-08-15T03:15:25.849Z,0
2023-08-15T03:16:40.142Z,0
2023-08-15T03:17:54.380Z,1
2023-08-15T03:19:08.673Z,0
2023-08-15T03:20:22.923Z,1
2023-08-15T03:21:37.161Z,1
2023-08-15T03:22:51.399Z,1
2023-08-15T03:24:05.692Z,0
2023-08-15T03:25:18.958Z,2
2023-08-15T03:26:33.196Z,2
2023-08-15T03:27:47.435Z,3
2023-08-15T03:29:01.673Z,2
2023-08-15T03:30:15.912Z,4
2023-08-15T03:31:30.150Z,6
2023-08-15T03:32:44.389Z,5
2023-08-15T03:33:58.627Z,4
2023-08-15T03:35:12.866Z,2
2023-08-15T03:36:27.104Z,12
2023-08-15T03:37:41.343Z,10
2023-08-15T03:38:55.581Z,13
2023-08-15T03:40:09.820Z,14
2023-08-15T03:41:23.075Z,17
2023-08-15T03:42:37.313Z,22
2023-08-15T03:43:51.551Z,26
2023-08-15T03:45:05.790Z,34
2023-08-15T03:46:20.028Z,38
2023-08-15T03:47:34.267Z,41
2023-08-15T03:48:47.526Z,49
2023-08-15T03:50:01.765Z,55
2023-08-15T03:51:16.003Z,60
2023-08-15T03:52:30.243Z,68
2023-08-15T03:53:44.483Z,79
2023-08-15T03:54:58.721Z,88
2023-08-15T03:56:12.959Z,97
2023-08-15T03:57:27.198Z,108
2023-08-15T03:58:41.436Z,122
2023-08-15T03:59:55.675Z,141
2023-08-15T04:01:09.913Z,156
2023-08-15T04:02:24.152Z,170
2023-08-15T04:03:38.391Z,185
2023-08-15T04:04:51.645Z,201
2023-08-15T04:06:05.884Z,217
2023-08-15T04:07:20.122Z,238
2023-08-15T04:08:34.361Z,259
2023-08-15T04:09:48.599Z,278
2023-08-15T04:11:02.837Z,298
2023-08-15T04:12:17.077Z,319
2023-08-15T04:13:31.316Z,340
2023-08-15T04:14:45.554Z,365
2023-08-15T04:15:59.793Z,385
2023-08-15T04:17:14.031Z,404
2023-08-15T04:18:28.270Z,431
2023-08-15T04:19:42.508Z,454
2023-08-15T04:20:55.763Z,478
2023-08-15T04:22:10.001Z,500
2023-08-15T04:23:24.240Z,527
2023-08-15T04:24:38.479Z,547
2023-08-15T04:25:52.718Z,575
2023-08-15T04:27:06.957Z,598
2023-08-15T04:28:21.195Z,627
2023-08-15T04:29:35.434Z,649
2023-08-15T04:30:49.672Z,681
2023-08-15T04:32:03.911Z,704
2023-08-15T04:33:18.149Z,734
2023-08-15T04:34:32.388Z,757
2023-08-15T04:35:46.627Z,786
2023-08-15T04:36:59.881Z,807
2023-08-15T04:38:14.120Z,825
2023-08-15T04:39:28.358Z,858
2023-08-15T04:40:42.597Z,887
2023-08-15T04:41:56.835Z,899
2023-08-15T04:43:11.075Z,932
2023-08-15T04:44:25.313Z,964
2023-08-15T04:45:39.552Z,987
2023-08-15T04:46:53.790Z,1014
2023-08-15T04:48:08.029Z,1053
2023-08-15T04:49:22.267Z,1048
2023-08-15T04:50:36.506Z,1094
2023-08-15T04:51:50.744Z,1136
2023-08-15T04:53:03.999Z,1139
2023-08-15T04:54:18.237Z,1114
2023-08-15T04:55:32.476Z,1134
2023-08-15T04:56:46.715Z,1221
2023-08-15T04:58:00.953Z,1259
2023-08-15T04:59:15.192Z,1230
2023-08-15T05:00:29.430Z,1237
2023-08-15T05:01:43.669Z,1259
2023-08-15T05:02:57.907Z,1264
2023-08-15T05:04:12.145Z,1317
2023-08-15T05:05:26.384Z,1347
2023-08-15T05:06:40.623Z,1318
2023-08-15T05:07:54.861Z,1336
2023-08-15T05:09:08.116Z,1396
2023-08-15T05:10:22.354Z,1419
2023-08-15T05:11:36.593Z,1419
2023-08-15T05:12:50.831Z,1460
2023-08-15T05:14:05.070Z,1507
2023-08-15T05:15:19.308Z,1503
2023-08-15T05:16:33.547Z,1531
2023-08-15T05:17:47.785Z,1558
2023-08-15T05:19:02.024Z,1581
2023-08-15T05:20:16.262Z,1570
2023-08-15T05:21:30.501Z,1576
2023-08-15T05:22:44.739Z,1574
2023-08-15T05:23:58.978Z,1600
2023-08-15T05:25:12.232Z,1635
2023-08-15T05:26:26.471Z,1645
2023-08-15T05:27:40.709Z,1689
2023-08-15T05:28:54.948Z,1715
2023-08-15T05:30:09.186Z,1734
2023-08-15T05:31:23.425Z,1763
2023-08-15T05:32:37.663Z,1779
2023-08-15T05:33:51.902Z,1790
2023-08-15T05:35:06.140Z,1833
2023-08-15T05:36:20.379Z,1871
2023-08-15T05:37:34.617Z,1878
2023-08-15T05:38:48.856Z,1899
2023-08-15T05:40:03.094Z,1905
2023-08-15T05:41:16.349Z,1888
2023-08-15T05:42:30.588Z,1884
2023-08-15T05:43:44.826Z,1886
2023-08-15T05:44:59.064Z,1873
2023-08-15T05:46:13.303Z,1905
2023-08-15T05:47:27.541Z,1967
2023-08-15T05:48:41.780Z,1970
2023-08-15T05:49:56.019Z,1960
2023-08-15T05:51:10.257Z,2028
2023-08-15T05:52:24.496Z,1988
2023-08-15T05:53:38.734Z,1979
2023-08-15T05:54:52.973Z,2084
2023-08-15T05:56:07.211Z,2074
2023-08-15T05:57:20.466Z,2063
2023-08-15T05:58:34.705Z,2161
2023-08-15T05:59:48.943Z,2124
2023-08-15T06:01:03.182Z,2078
2023-08-15T06:02:17.421Z,2121
2023-08-15T06:03:31.659Z,2193
2023-08-15T06:04:45.898Z,2206
2023-08-15T06:06:00.136Z,2214
2023-08-15T06:07:14.375Z,2210
2023-08-15T06:08:28.614Z,2155
2023-08-15T06:09:42.852Z,2227
2023-08-15T06:10:57.091Z,2263
2023-08-15T06:12:11.330Z,2200
2023-08-15T06:13:24.584Z,2196
2023-08-15T06:14:38.823Z,2198
2023-08-15T06:15:53.061Z,2215
2023-08-15T06:17:07.300Z,2208
2023-08-15T06:18:21.539Z,2242
2023-08-15T06:19:35.777Z,2234
2023-08-15T06:20:50.016Z,2244
2023-08-15T06:22:04.255Z,2276
2023-08-15T06:23:18.493Z,2285
2023-08-15T06:24:32.732Z,2269
2023-08-15T06:25:46.970Z,2342
2023-08-15T06:27:01.209Z,2380
2023-08-15T06:28:15.447Z,2381
2023-08-15T06:29:28.702Z,2408
2023-08-15T06:30:42.941Z,2448
2023-08-15T06:31:57.179Z,2480
2023-08-15T06:33:11.418Z,2441
2023-08-15T06:34:25.656Z,2458
2023-08-15T06:35:39.895Z,2483
2023-08-15T06:36:54.133Z,2491
2023-08-15T06:38:08.372Z,2485
2023-08-15T06:39:22.611Z,2495
2023-08-15T06:40:36.850Z,2510
2023-08-15T06:41:51.088Z,2586
2023-08-15T06:43:05.327Z,2612
2023-08-15T06:44:19.566Z,2593
2023-08-15T06:45:32.820Z,2609
2023-08-15T06:46:47.059Z,2628
2023-08-15T06:48:01.297Z,2638
2023-08-15T06:49:15.536Z,2579
2023-08-15T06:50:29.774Z,2549
2023-08-15T06:51:44.013Z,2555
2023-08-15T06:52:58.251Z,2561
2023-08-15T06:54:12.490Z,2593
2023-08-15T06:55:26.728Z,2573
2023-08-15T06:56:40.967Z,2647
2023-08-15T06:57:55.205Z,2652
2023-08-15T06:59:09.444Z,2704
2023-08-15T07:00:23.683Z,2813
2023-08-15T07:01:36.937Z,2836
2023-08-15T07:02:51.176Z,2805
2023-08-15T07:04:05.414Z,2960
2023-08-15T07:05:19.653Z,3157
2023-08-15T07:06:33.892Z,3216
2023-08-15T07:07:48.130Z,3334
2023-08-15T07:09:02.369Z,3417
2023-08-15T07:10:16.608Z,3540
2023-08-15T07:11:30.846Z,3809
2023-08-15T07:12:45.085Z,3937
2023-08-15T07:13:59.323Z,3741
2023-08-15T07:15:13.562Z,3798
2023-08-15T07:16:27.801Z,3660
2023-08-15T07:17:41.056Z,3500
2023-08-15T07:18:55.295Z,3522
2023-08-15T07:20:09.506Z,3596
2023-08-15T07:21:23.772Z,3730
2023-08-15T07:22:38.010Z,3784
2023-08-15T07:23:52.249Z,3696
2023-08-15T07:25:06.487Z,3597
2023-08-15T07:26:20.726Z,3539
2023-08-15T07:27:34.965Z,3467
2023-08-15T07:28:49.204Z,3379
2023-08-15T07:30:03.442Z,3406
2023-08-15T07:31:17.681Z,3466
2023-08-15T07:32:31.920Z,3385
2023-08-15T07:33:45.174Z,3393
2023-08-15T07:34:59.413Z,3739
2023-08-15T07:36:13.652Z,4166
2023-08-15T07:37:27.891Z,3025
2023-08-15T07:38:42.130Z,4358
2023-08-15T07:39:56.368Z,3749
2023-08-15T07:41:10.607Z,3480
2023-08-15T07:42:24.846Z,4179
2023-08-15T07:43:39.084Z,5122
2023-08-15T07:44:53.323Z,5762
2023-08-15T07:46:07.562Z,6601
2023-08-15T07:47:21.801Z,3270
2023-08-15T07:48:36.040Z,6006
2023-08-15T07:49:49.294Z,4231
2023-08-15T07:51:03.533Z,3762
2023-08-15T07:52:17.772Z,2497
2023-08-15T07:53:32.010Z,3009
2023-08-15T07:54:46.249Z,4505
2023-08-15T07:56:00.488Z,2470
2023-08-15T07:57:13.748Z,1320
2023-08-15T07:58:27.987Z,3650
2023-08-15T07:59:42.226Z,4101
2023-08-15T08:00:56.464Z,6789
2023-08-15T08:02:10.703Z,2658
2023-08-15T08:03:24.942Z,2377
2023-08-15T08:04:39.180Z,4780
2023-08-15T08:05:53.419Z,4875
2023-08-15T08:07:07.658Z,4820
2023-08-15T08:08:21.897Z,6826
2023-08-15T08:09:36.136Z,1433
2023-08-15T08:10:50.374Z,4288
2023-08-15T08:12:04.614Z,4222
2023-08-15T08:13:18.853Z,4016
2023-08-15T08:14:32.108Z,3776
2023-08-15T08:15:46.347Z,3528
2023-08-15T08:17:00.586Z,3385
2023-08-15T08:18:14.825Z,3255
2023-08-15T08:19:29.064Z,3236
2023-08-15T08:20:43.303Z,3232
2023-08-15T08:21:57.542Z,3235
2023-08-15T08:23:11.781Z,3238
2023-08-15T08:24:26.019Z,3242
2023-08-15T08:25:40.258Z,3264
2023-08-15T08:26:54.497Z,3311
2023-08-15T08:28:08.736Z,3435
2023-08-15T08:29:22.975Z,3575
2023-08-15T08:30:36.230Z,3768
2023-08-15T08:31:50.469Z,3858
2023-08-15T08:33:04.708Z,3921
2023-08-15T08:34:18.947Z,4161
2023-08-15T08:35:33.186Z,4157
2023-08-15T08:36:47.424Z,5242
2023-08-15T08:38:01.663Z,7183
2023-08-15T08:39:15.902Z,2928
2023-08-15T08:40:30.140Z,3581
2023-08-15T08:41:44.379Z,4221
2023-08-15T08:42:58.618Z,6062
2023-08-15T08:44:12.857Z,7206
2023-08-15T08:45:27.095Z,6601
2023-08-15T08:46:40.350Z,4231
2023-08-15T08:47:54.589Z,2135
2023-08-15T08:49:08.827Z,5958
2023-08-15T08:50:23.066Z,8072
2023-08-15T08:51:37.304Z,7851
2023-08-15T08:52:51.543Z,5472
2023-08-15T08:54:05.782Z,5403
2023-08-15T08:55:20.020Z,5668
2023-08-15T08:56:34.259Z,5509
2023-08-15T08:57:48.497Z,3800
2023-08-15T08:59:02.736Z,7107
2023-08-15T09:00:16.975Z,5154
2023-08-15T09:01:31.213Z,5107
2023-08-15T09:02:44.468Z,4782
2023-08-15T09:03:58.707Z,4599
2023-08-15T09:05:12.945Z,4518
2023-08-15T09:06:27.184Z,4392
2023-08-15T09:07:41.422Z,4335
2023-08-15T09:08:55.661Z,4382
2023-08-15T09:10:09.900Z,4529
2023-08-15T09:11:24.138Z,4663
2023-08-15T09:12:38.377Z,4764
2023-08-15T09:13:52.616Z,4907
2023-08-15T09:15:06.854Z,5005
2023-08-15T09:16:21.093Z,5104
2023-08-15T09:17:35.332Z,5179
2023-08-15T09:18:48.586Z,5162
2023-08-15T09:20:02.825Z,4993
2023-08-15T09:21:17.064Z,4749
2023-08-15T09:22:31.303Z,4339
2023-08-15T09:23:45.542Z,6578
2023-08-15T09:24:59.781Z,4800
2023-08-15T09:26:14.019Z,4732
2023-08-15T09:27:28.258Z,2422
2023-08-15T09:28:42.497Z,5266
2023-08-15T09:29:56.735Z,6281
2023-08-15T09:31:10.974Z,4190
2023-08-15T09:32:25.213Z,3961
2023-08-15T09:33:39.451Z,3886
2023-08-15T09:34:52.706Z,4316
2023-08-15T09:36:06.945Z,4313
2023-08-15T09:37:21.185Z,4357
2023-08-15T09:38:35.423Z,4163
2023-08-15T09:39:49.662Z,1755
2023-08-15T09:41:03.901Z,8283
2023-08-15T09:42:18.139Z,3986
2023-08-15T09:43:32.378Z,4772
2023-08-15T09:44:46.617Z,5229
2023-08-15T09:46:00.855Z,4722
2023-08-15T09:47:15.094Z,5074
2023-08-15T09:48:29.333Z,4737
2023-08-15T09:49:43.571Z,4909
2023-08-15T09:50:56.806Z,4703
2023-08-15T09:52:11.065Z,4352
2023-08-15T09:53:25.303Z,4230
2023-08-15T09:54:39.542Z,4396
2023-08-15T09:55:53.780Z,1879
2023-08-15T09:57:08.019Z,8009
2023-08-15T09:58:22.258Z,2004
2023-08-15T09:59:36.497Z,9239
2023-08-15T10:00:50.735Z,5423
2023-08-15T10:02:04.974Z,5127
2023-08-15T10:03:19.213Z,4877
2023-08-15T10:04:33.451Z,4557
2023-08-15T10:05:47.690Z,4373
2023-08-15T10:07:01.929Z,4124
2023-08-15T10:08:16.168Z,5038
2023-08-15T10:09:29.423Z,4920
2023-08-15T10:10:43.661Z,4849
2023-08-15T10:11:57.900Z,4895
2023-08-15T10:13:12.138Z,5012
2023-08-15T10:14:26.377Z,5224
2023-08-15T10:15:40.616Z,5298
2023-08-15T10:16:54.854Z,5263
2023-08-15T10:18:09.093Z,4984
2023-08-15T10:19:23.332Z,4892
2023-08-15T10:20:37.570Z,5237
2023-08-15T10:21:51.809Z,4590
2023-08-15T10:23:06.047Z,5384
2023-08-15T10:24:20.286Z,4982
2023-08-15T10:25:34.525Z,4936
2023-08-15T10:26:47.779Z,4874
2023-08-15T10:28:02.018Z,4783
2023-08-15T10:29:16.257Z,4602
2023-08-15T10:30:30.496Z,4280
2023-08-15T10:31:44.734Z,1732
2023-08-15T10:32:58.973Z,7705
2023-08-15T10:34:13.211Z,4136
2023-08-15T10:35:27.450Z,4381
2023-08-15T10:36:41.689Z,3694
2023-08-15T10:37:55.928Z,3451
2023-08-15T10:39:10.167Z,3346
2023-08-15T10:40:24.406Z,2338
2023-08-15T10:41:38.644Z,4456
2023-08-15T10:42:52.883Z,2823
2023-08-15T10:44:06.138Z,3144
2023-08-15T10:45:20.376Z,2859
2023-08-15T10:46:34.615Z,2922
2023-08-15T10:47:48.853Z,2711
2023-08-15T10:49:03.092Z,2996
2023-08-15T10:50:17.331Z,1390
2023-08-15T10:51:31.571Z,3222
2023-08-15T10:52:45.809Z,4746
2023-08-15T10:54:00.048Z,4179
2023-08-15T10:55:14.286Z,4352
2023-08-15T10:56:28.525Z,4139
2023-08-15T10:57:42.764Z,3693
2023-08-15T10:58:57.002Z,4070
2023-08-15T11:00:11.241Z,5838
2023-08-15T11:01:24.496Z,2123
2023-08-15T11:02:38.735Z,2747
2023-08-15T11:03:52.973Z,2046
2023-08-15T11:05:07.212Z,3981
2023-08-15T11:06:21.450Z,3895
2023-08-15T11:07:35.689Z,2625
2023-08-15T11:08:49.928Z,4097
2023-08-15T11:10:04.166Z,4190
2023-08-15T11:11:18.405Z,4396
2023-08-15T11:12:32.644Z,5576
2023-08-15T11:13:46.882Z,2768
2023-08-15T11:15:01.121Z,6940
2023-08-15T11:16:15.359Z,3694
2023-08-15T11:17:29.598Z,2807
2023-08-15T11:18:43.837Z,2165
2023-08-15T11:19:58.076Z,4728
2023-08-15T11:21:12.315Z,4694
2023-08-15T11:22:26.554Z,5137
2023-08-15T11:23:39.809Z,4857
2023-08-15T11:24:54.047Z,5020
2023-08-15T11:26:08.286Z,5206
2023-08-15T11:27:22.525Z,4944
2023-08-15T11:28:36.764Z,6974
2023-08-15T11:29:51.003Z,1511
2023-08-15T11:31:05.242Z,4609
2023-08-15T11:32:19.481Z,4335
2023-08-15T11:33:33.720Z,4928
2023-08-15T11:34:47.959Z,3348
2023-08-15T11:36:02.176Z,5892
2023-08-15T11:37:16.437Z,4642
2023-08-15T11:38:30.676Z,1248
2023-08-15T11:39:44.915Z,5647
2023-08-15T11:40:58.170Z,2574
2023-08-15T11:42:12.409Z,1419
2023-08-15T11:43:26.648Z,4554
2023-08-15T11:44:40.887Z,2606
2023-08-15T11:45:55.126Z,2659
2023-08-15T11:47:09.365Z,2994
2023-08-15T11:48:23.604Z,2687
2023-08-15T11:49:37.843Z,2752
2023-08-15T11:50:52.082Z,2824
2023-08-15T11:52:06.321Z,2615
2023-08-15T11:53:20.560Z,4113
2023-08-15T11:54:34.799Z,2510
2023-08-15T11:55:49.038Z,1768
2023-08-15T11:57:02.293Z,3546
2023-08-15T11:58:16.532Z,3679
2023-08-15T11:59:30.772Z,1570
2023-08-15T12:00:45.011Z,6079
2023-08-15T12:01:59.249Z,2974
2023-08-15T12:03:13.488Z,3787
2023-08-15T12:04:27.728Z,1848
2023-08-15T12:05:41.966Z,5264
2023-08-15T12:06:56.205Z,3966
2023-08-15T12:08:10.444Z,3789
2023-08-15T12:09:24.683Z,2839
2023-08-15T12:10:38.922Z,3971
2023-08-15T12:11:53.161Z,4182
2023-08-15T12:13:07.400Z,3497
2023-08-15T12:14:21.640Z,2694
2023-08-15T12:15:35.878Z,1652
2023-08-15T12:16:50.117Z,3517
2023-08-15T12:18:04.356Z,3731
2023-08-15T12:19:18.595Z,3552
2023-08-15T12:20:32.834Z,3530
2023-08-15T12:21:47.073Z,5100
2023-08-15T12:23:01.312Z,1137
2023-08-15T12:24:15.552Z,5241
2023-08-15T12:25:29.791Z,2313
2023-08-15T12:26:44.030Z,2508
2023-08-15T12:27:58.269Z,2923
2023-08-15T12:29:12.508Z,3826
2023-08-15T12:30:26.747Z,3112
2023-08-15T12:31:40.986Z,3434
2023-08-15T12:32:55.225Z,3421
2023-08-15T12:34:09.464Z,3431
2023-08-15T12:35:23.703Z,3377
2023-08-15T12:36:37.942Z,3381
2023-08-15T12:37:52.181Z,3407
2023-08-15T12:39:06.420Z,3391
2023-08-15T12:40:20.659Z,3420
2023-08-15T12:41:34.898Z,3473
2023-08-15T12:42:49.201Z,3318
2023-08-15T12:44:03.502Z,3344
2023-08-15T12:45:17.802Z,3328
2023-08-15T12:46:32.103Z,3374
2023-08-15T12:47:46.403Z,3615
2023-08-15T12:49:00.704Z,3523
2023-08-15T12:50:15.005Z,3596
2023-08-15T12:51:29.305Z,3504
2023-08-15T12:52:43.606Z,3614
2023-08-15T12:53:57.907Z,3872
2023-08-15T12:55:12.208Z,3245
2023-08-15T12:56:26.508Z,3741
2023-08-15T12:57:40.809Z,2540
2023-08-15T12:58:55.225Z,3426
2023-08-15T13:00:09.639Z,3354
2023-08-15T13:01:24.053Z,3287
2023-08-15T13:02:38.467Z,3385
2023-08-15T13:03:52.867Z,3399
2023-08-15T13:05:07.295Z,2743
2023-08-15T13:06:21.708Z,3479
2023-08-15T13:07:36.122Z,2942
2023-08-15T13:08:50.536Z,3326
2023-08-15T13:10:04.950Z,3493
2023-08-15T13:11:19.364Z,3648
2023-08-15T13:12:33.778Z,3720
2023-08-15T13:13:48.192Z,3726
2023-08-15T13:15:02.813Z,3882
2023-08-15T13:16:17.433Z,3903
2023-08-15T13:17:32.053Z,4198
2023-08-15T13:18:46.672Z,4580
2023-08-15T13:20:01.292Z,4288
2023-08-15T13:21:15.912Z,4220
2023-08-15T13:22:30.531Z,6118
2023-08-15T13:23:45.151Z,4645
2023-08-15T13:24:59.771Z,4752
2023-08-15T13:26:14.391Z,4682
2023-08-15T13:27:29.010Z,4562
2023-08-15T13:28:43.630Z,4533
2023-08-15T13:29:58.250Z,4617
2023-08-15T13:33:12.218Z,4659
2023-08-15T13:34:42.730Z,4566
2023-08-15T13:36:13.243Z,4879
2023-08-15T13:37:43.755Z,4606
2023-08-15T13:38:58.828Z,5412
2023-08-15T13:40:13.900Z,4253
2023-08-15T13:41:44.412Z,3720
2023-08-15T13:43:14.925Z,3472
2023-08-15T13:44:45.437Z,3366
2023-08-15T13:46:15.950Z,3317
2023-08-15T13:47:46.462Z,3383
2023-08-15T13:49:16.975Z,3381
2023-08-15T13:50:47.487Z,3288
2023-08-15T13:54:04.876Z,3245
2023-08-15T13:55:21.194Z,2941
2023-08-15T13:58:22.216Z,3516
2023-08-15T14:01:23.239Z,3843
2023-08-15T14:04:24.261Z,3903
2023-08-15T14:07:25.283Z,3510
2023-08-15T14:10:26.306Z,3199
2023-08-15T14:13:27.328Z,2609
2023-08-15T14:16:28.351Z,2112
2023-08-15T14:19:29.373Z,1820
2023-08-15T14:22:30.395Z,1568
2023-08-15T14:24:15.118Z,1337
2023-08-15T14:25:31.436Z,1177
2023-08-15T14:31:00.718Z,1123
2023-08-15T14:34:01.740Z,1231
2023-08-15T14:37:02.762Z,983
2023-08-15T14:40:03.784Z,848
2023-08-15T14:43:03.140Z,741
2023-08-15T14:44:16.488Z,628
2023-08-15T14:45:30.789Z,491
2023-08-15T14:46:45.089Z,454
2023-08-15T14:47:59.390Z,430
2023-08-15T14:49:13.690Z,397
2023-08-15T14:50:27.991Z,372
2023-08-15T14:51:42.291Z,355
2023-08-15T14:52:56.592Z,337
2023-08-15T14:54:10.892Z,318
2023-08-15T14:55:25.192Z,303
2023-08-15T14:56:39.492Z,299
2023-08-15T14:57:53.793Z,294
2023-08-15T14:59:08.093Z,289
2023-08-15T15:00:21.441Z,279
2023-08-15T15:01:35.742Z,276
2023-08-15T15:02:50.042Z,269
2023-08-15T15:04:04.342Z,263
2023-08-15T15:05:18.643Z,258
2023-08-15T15:06:32.943Z,252
2023-08-15T15:07:46.250Z,245
2023-08-15T15:08:59.504Z,247
2023-08-15T15:10:13.743Z,242
2023-08-15T15:11:27.981Z,242
2023-08-15T15:12:42.220Z,237
2023-08-15T15:13:56.459Z,230
2023-08-15T15:15:10.697Z,226
2023-08-15T15:16:24.936Z,220
2023-08-15T15:17:39.175Z,211
2023-08-15T15:18:53.413Z,201
2023-08-15T15:20:07.652Z,203
2023-08-15T15:21:21.891Z,201
2023-08-15T15:22:36.130Z,201
2023-08-15T15:23:50.369Z,202
2023-08-15T15:25:03.624Z,201
2023-08-15T15:26:17.862Z,196
2023-08-15T15:27:32.101Z,198
2023-08-15T15:28:46.340Z,196
2023-08-15T15:30:00.579Z,196
2023-08-15T15:31:14.818Z,200
2023-08-15T15:32:29.056Z,203
2023-08-15T15:33:43.295Z,199
2023-08-15T15:34:57.534Z,199
2023-08-15T15:36:11.773Z,205
2023-08-15T15:37:26.012Z,205
2023-08-15T15:38:40.251Z,208
2023-08-15T15:39:54.490Z,223
2023-08-15T15:41:07.745Z,219
2023-08-15T15:42:21.984Z,221
2023-08-15T15:43:36.222Z,226
2023-08-15T15:44:50.461Z,233
2023-08-15T15:46:04.700Z,233
2023-08-15T15:47:18.939Z,228
2023-08-15T15:48:33.178Z,223
2023-08-15T15:49:47.417Z,217
2023-08-15T15:51:01.656Z,204
2023-08-15T15:52:15.895Z,193
2023-08-15T15:53:30.133Z,186
2023-08-15T15:54:44.372Z,182
2023-08-15T15:55:58.611Z,173
2023-08-15T15:57:11.866Z,165
2023-08-15T15:58:26.105Z,160
2023-08-15T15:59:40.344Z,153
2023-08-15T16:00:54.583Z,161
2023-08-15T16:02:08.822Z,160
2023-08-15T16:03:23.060Z,168
2023-08-15T16:04:37.299Z,168
2023-08-15T16:05:51.538Z,173
2023-08-15T16:07:05.777Z,183
2023-08-15T16:08:20.016Z,195
2023-08-15T16:09:34.254Z,222
2023-08-15T16:10:48.493Z,247
2023-08-15T16:12:02.732Z,268
2023-08-15T16:13:15.986Z,283
2023-08-15T16:14:30.225Z,284
2023-08-15T16:15:44.463Z,277
2023-08-15T16:16:58.702Z,272
2023-08-15T16:18:12.941Z,271
2023-08-15T16:19:27.180Z,275
2023-08-15T16:20:41.418Z,276
2023-08-15T16:21:55.657Z,283
2023-08-15T16:23:09.895Z,293
2023-08-15T16:24:24.134Z,309
2023-08-15T16:25:38.373Z,347
2023-08-15T16:26:52.611Z,387
2023-08-15T16:28:06.850Z,409
2023-08-15T16:29:20.105Z,421
2023-08-15T16:30:34.343Z,429
2023-08-15T16:31:48.582Z,438
2023-08-15T16:33:02.821Z,445
2023-08-15T16:34:17.059Z,440
2023-08-15T16:35:31.298Z,427
2023-08-15T16:36:45.536Z,413
2023-08-15T16:37:59.775Z,380
2023-08-15T16:39:14.014Z,355
2023-08-15T16:40:28.253Z,333
2023-08-15T16:41:42.492Z,327
2023-08-15T16:42:56.730Z,321
2023-08-15T16:44:10.969Z,302
2023-08-15T16:45:24.223Z,284
2023-08-15T16:46:38.462Z,275
2023-08-15T16:47:52.700Z,280
2023-08-15T16:49:06.939Z,288
2023-08-15T16:50:21.178Z,286
2023-08-15T16:51:35.417Z,270
2023-08-15T16:52:49.655Z,249
2023-08-15T16:54:03.894Z,235
2023-08-15T16:55:18.132Z,234
2023-08-15T16:56:32.349Z,244
2023-08-15T16:57:46.609Z,251
2023-08-15T16:59:00.848Z,259
2023-08-15T17:00:15.087Z,277
2023-08-15T17:01:28.342Z,301
2023-08-15T17:02:42.580Z,321
2023-08-15T17:03:56.819Z,325
2023-08-15T17:05:11.058Z,337
2023-08-15T17:06:25.296Z,366
2023-08-15T17:07:39.535Z,414
2023-08-15T17:08:53.773Z,439
2023-08-15T17:10:08.012Z,444
2023-08-15T17:11:22.251Z,442
2023-08-15T17:12:36.489Z,479
2023-08-15T17:13:50.728Z,554
2023-08-15T17:15:04.966Z,658
2023-08-15T17:16:19.205Z,766
2023-08-15T17:18:46.698Z,836
2023-08-15T17:20:00.937Z,726
2023-08-15T17:21:15.175Z,617
2023-08-15T17:22:29.415Z,527
2023-08-15T17:23:43.654Z,440
2023-08-15T17:24:57.892Z,373
2023-08-15T17:26:12.131Z,330
2023-08-15T17:27:26.370Z,312
2023-08-15T17:28:40.608Z,298
2023-08-15T17:29:54.847Z,293
2023-08-15T17:31:09.085Z,300
2023-08-15T17:32:23.324Z,303
2023-08-15T17:33:36.579Z,303
2023-08-15T17:34:50.796Z,334